Accueil
METAR-TAF:

METAR-TAF

Aéroports :

Granges, Suisse

Aéroport de Granges

latitude: 47-10-53N, longitude: 007-24-59E, altitude: 430 m

Observation

Le bulletin a été fait il y a 20 minutes, à 08:50 UTC
Vent 8 kt de ouest
Température 20°C
Humidité 60%
Pression 1021 hPa
Visibilité 10 km ou plus
Quelques nuages à une hauteur de 4000 ft
Nuages fragmentés à une hauteur de 5300 ft

METAR: LSZG 190850Z 27008KT 9999 FEW040 BKN053 20/12 Q1021 NOSIG

Heure: 11:10 (09:10 UTC)

Prévision

Le bulletin a été fait il y a 45 minutes, à 08:25 UTC
Prévision valable du 19 à 09 UTC au 19 à 18 UTC
Vent 2 kt de direction variable
Visibilité 10 km ou plus
Quelques nuages à une hauteur de 2000 ft
Nuages épars à une hauteur de 8000 ft
Evoluant progressivement
du 19 à 10 UTC au 19 à 12 UTC
Vent 12 kt de nord/nord-ouest

TAF: LSZG 190825Z 1909/1918 VRB02KT 9999 FEW020 SCT080 BECMG 1910/1912 33012KT

Observations et prévisions météorologiques de plus de 4000 aéroports (messages METAR et TAF).

Les stations disponibles sont représentées par des disques jaunes et rouges sur la carte.

Passer la souris dessus pour voir le nom de la station.

Cliquer dessus pour voir les observations et prévisions météorologiques.

Pour changer de carte: cliquez sur les boutons verts avec une croix noire pour zoomer, sur le bouton vert avec un tiret pour effectuer un zoom arrière, ou sur les flèches vertes pour les cartes adjacentes.


METAR-TAF: